sensor_id;sensor_type;location;lat;lon;timestamp;temperature;humidity
6307;DHT22;3186;54.062;9.962;2022-12-20T00:01:10;5.80;99.90
6307;DHT22;3186;54.062;9.962;2022-12-20T00:03:36;5.60;99.90
6307;DHT22;3186;54.062;9.962;2022-12-20T00:06:03;5.60;99.90
6307;DHT22;3186;54.062;9.962;2022-12-20T00:08:29;5.70;99.90
6307;DHT22;3186;54.062;9.962;2022-12-20T00:10:54;5.80;99.90
6307;DHT22;3186;54.062;9.962;2022-12-20T00:13:20;5.70;99.90
6307;DHT22;3186;54.062;9.962;2022-12-20T00:15:46;5.70;99.90
6307;DHT22;3186;54.062;9.962;2022-12-20T00:18:12;5.80;99.90
6307;DHT22;3186;54.062;9.962;2022-12-20T00:20:38;5.70;99.90
6307;DHT22;3186;54.062;9.962;2022-12-20T00:23:05;5.90;99.90
6307;DHT22;3186;54.062;9.962;2022-12-20T00:25:31;5.70;99.90
6307;DHT22;3186;54.062;9.962;2022-12-20T00:27:57;5.80;99.90
6307;DHT22;3186;54.062;9.962;2022-12-20T00:30:23;5.70;99.90
6307;DHT22;3186;54.062;9.962;2022-12-20T00:32:49;5.70;99.90
6307;DHT22;3186;54.062;9.962;2022-12-20T00:35:14;5.90;99.90
6307;DHT22;3186;54.062;9.962;2022-12-20T00:37:40;5.90;99.90
6307;DHT22;3186;54.062;9.962;2022-12-20T00:40:07;5.80;99.90
6307;DHT22;3186;54.062;9.962;2022-12-20T00:42:33;5.80;99.90
6307;DHT22;3186;54.062;9.962;2022-12-20T00:44:58;5.80;99.90
6307;DHT22;3186;54.062;9.962;2022-12-20T00:47:24;5.90;99.90
6307;DHT22;3186;54.062;9.962;2022-12-20T00:49:50;5.80;99.90
6307;DHT22;3186;54.062;9.962;2022-12-20T00:52:16;5.70;99.90
6307;DHT22;3186;54.062;9.962;2022-12-20T00:54:42;6.00;99.90
6307;DHT22;3186;54.062;9.962;2022-12-20T00:57:08;6.10;99.90
6307;DHT22;3186;54.062;9.962;2022-12-20T00:59:34;6.10;99.90
6307;DHT22;3186;54.062;9.962;2022-12-20T01:01:59;6.00;99.90
6307;DHT22;3186;54.062;9.962;2022-12-20T01:04:25;6.00;99.90
6307;DHT22;3186;54.062;9.962;2022-12-20T01:06:51;6.10;99.90
6307;DHT22;3186;54.062;9.962;2022-12-20T01:09:17;6.00;99.90
6307;DHT22;3186;54.062;9.962;2022-12-20T01:11:43;6.10;99.90
6307;DHT22;3186;54.062;9.962;2022-12-20T01:14:14;6.10;99.90
6307;DHT22;3186;54.062;9.962;2022-12-20T01:16:45;6.10;99.90
6307;DHT22;3186;54.062;9.962;2022-12-20T01:19:15;6.20;99.90
6307;DHT22;3186;54.062;9.962;2022-12-20T01:21:41;6.20;99.90
6307;DHT22;3186;54.062;9.962;2022-12-20T01:24:14;6.00;99.90
6307;DHT22;3186;54.062;9.962;2022-12-20T01:26:40;6.10;99.90
6307;DHT22;3186;54.062;9.962;2022-12-20T01:29:06;6.20;99.90
6307;DHT22;3186;54.062;9.962;2022-12-20T01:31:32;6.10;99.90
6307;DHT22;3186;54.062;9.962;2022-12-20T01:33:59;6.20;99.90
6307;DHT22;3186;54.062;9.962;2022-12-20T01:36:27;6.20;99.90
6307;DHT22;3186;54.062;9.962;2022-12-20T01:38:57;6.10;99.90
6307;DHT22;3186;54.062;9.962;2022-12-20T01:41:23;6.20;99.90
6307;DHT22;3186;54.062;9.962;2022-12-20T01:46:15;6.30;99.90
6307;DHT22;3186;54.062;9.962;2022-12-20T01:48:45;6.30;99.90
6307;DHT22;3186;54.062;9.962;2022-12-20T01:51:12;6.30;99.90
6307;DHT22;3186;54.062;9.962;2022-12-20T01:53:39;6.40;99.90
6307;DHT22;3186;54.062;9.962;2022-12-20T01:56:06;6.30;99.90
6307;DHT22;3186;54.062;9.962;2022-12-20T01:58:34;6.40;99.90
6307;DHT22;3186;54.062;9.962;2022-12-20T02:01:02;6.40;99.90
6307;DHT22;3186;54.062;9.962;2022-12-20T02:03:29;6.30;99.90
6307;DHT22;3186;54.062;9.962;2022-12-20T02:05:55;6.40;99.90
6307;DHT22;3186;54.062;9.962;2022-12-20T02:08:21;6.30;99.90
6307;DHT22;3186;54.062;9.962;2022-12-20T02:16:21;6.40;99.90
6307;DHT22;3186;54.062;9.962;2022-12-20T02:22:22;6.50;99.90
6307;DHT22;3186;54.062;9.962;2022-12-20T02:25:11;6.50;99.90
6307;DHT22;3186;54.062;9.962;2022-12-20T02:30:22;6.40;99.90
6307;DHT22;3186;54.062;9.962;2022-12-20T02:33:01;6.50;99.90
6307;DHT22;3186;54.062;9.962;2022-12-20T02:35:31;6.50;99.90
6307;DHT22;3186;54.062;9.962;2022-12-20T02:38:00;6.50;99.90
6307;DHT22;3186;54.062;9.962;2022-12-20T02:40:39;6.50;99.90
6307;DHT22;3186;54.062;9.962;2022-12-20T02:43:09;6.50;99.90
6307;DHT22;3186;54.062;9.962;2022-12-20T02:45:56;6.60;99.90
6307;DHT22;3186;54.062;9.962;2022-12-20T02:48:24;6.60;99.90
6307;DHT22;3186;54.062;9.962;2022-12-20T02:50:53;6.50;99.90
6307;DHT22;3186;54.062;9.962;2022-12-20T02:53:22;6.60;99.90
6307;DHT22;3186;54.062;9.962;2022-12-20T02:56:15;6.50;99.90
6307;DHT22;3186;54.062;9.962;2022-12-20T02:59:28;6.60;99.90
6307;DHT22;3186;54.062;9.962;2022-12-20T03:01:40;6.60;99.90
6307;DHT22;3186;54.062;9.962;2022-12-20T03:04:09;6.60;99.90
6307;DHT22;3186;54.062;9.962;2022-12-20T03:06:39;6.60;99.90
6307;DHT22;3186;54.062;9.962;2022-12-20T03:09:11;6.60;99.90
6307;DHT22;3186;54.062;9.962;2022-12-20T03:11:37;6.70;99.90
6307;DHT22;3186;54.062;9.962;2022-12-20T03:14:02;6.70;99.90
6307;DHT22;3186;54.062;9.962;2022-12-20T03:16:28;6.70;99.90
6307;DHT22;3186;54.062;9.962;2022-12-20T03:18:54;6.60;99.90
6307;DHT22;3186;54.062;9.962;2022-12-20T03:21:20;6.70;99.90
6307;DHT22;3186;54.062;9.962;2022-12-20T03:23:46;6.80;99.90
6307;DHT22;3186;54.062;9.962;2022-12-20T03:26:12;6.70;99.90
6307;DHT22;3186;54.062;9.962;2022-12-20T03:28:45;6.70;99.90
6307;DHT22;3186;54.062;9.962;2022-12-20T03:31:15;6.70;99.90
6307;DHT22;3186;54.062;9.962;2022-12-20T03:33:46;6.70;99.90
6307;DHT22;3186;54.062;9.962;2022-12-20T03:36:12;6.70;99.90
6307;DHT22;3186;54.062;9.962;2022-12-20T03:38:39;6.70;99.90
6307;DHT22;3186;54.062;9.962;2022-12-20T03:41:07;6.70;99.90
6307;DHT22;3186;54.062;9.962;2022-12-20T03:43:32;6.70;99.90
6307;DHT22;3186;54.062;9.962;2022-12-20T03:45:58;6.70;99.90
6307;DHT22;3186;54.062;9.962;2022-12-20T03:48:26;6.80;99.90
6307;DHT22;3186;54.062;9.962;2022-12-20T03:50:51;6.70;99.90
6307;DHT22;3186;54.062;9.962;2022-12-20T03:53:17;6.70;99.90
6307;DHT22;3186;54.062;9.962;2022-12-20T03:55:43;6.70;99.90
6307;DHT22;3186;54.062;9.962;2022-12-20T03:58:09;6.70;99.90
6307;DHT22;3186;54.062;9.962;2022-12-20T04:00:37;6.80;99.90
6307;DHT22;3186;54.062;9.962;2022-12-20T04:03:35;6.70;99.90
6307;DHT22;3186;54.062;9.962;2022-12-20T04:06:01;6.70;99.90
6307;DHT22;3186;54.062;9.962;2022-12-20T04:08:27;6.70;99.90
6307;DHT22;3186;54.062;9.962;2022-12-20T04:10:53;6.80;99.90
6307;DHT22;3186;54.062;9.962;2022-12-20T04:13:40;6.70;99.90
6307;DHT22;3186;54.062;9.962;2022-12-20T04:16:08;6.80;99.90
6307;DHT22;3186;54.062;9.962;2022-12-20T04:18:34;6.80;99.90
6307;DHT22;3186;54.062;9.962;2022-12-20T04:21:00;6.80;99.90
6307;DHT22;3186;54.062;9.962;2022-12-20T04:23:29;6.80;99.90
6307;DHT22;3186;54.062;9.962;2022-12-20T04:25:55;6.80;99.90
6307;DHT22;3186;54.062;9.962;2022-12-20T04:28:21;6.80;99.90
6307;DHT22;3186;54.062;9.962;2022-12-20T04:30:49;6.80;99.90
6307;DHT22;3186;54.062;9.962;2022-12-20T04:33:22;6.90;99.90
6307;DHT22;3186;54.062;9.962;2022-12-20T04:35:48;6.90;99.90
6307;DHT22;3186;54.062;9.962;2022-12-20T04:38:14;6.70;99.90
6307;DHT22;3186;54.062;9.962;2022-12-20T04:40:40;6.90;99.90
6307;DHT22;3186;54.062;9.962;2022-12-20T04:43:07;6.90;99.90
6307;DHT22;3186;54.062;9.962;2022-12-20T04:45:33;6.90;99.90
6307;DHT22;3186;54.062;9.962;2022-12-20T04:48:01;6.90;99.90
6307;DHT22;3186;54.062;9.962;2022-12-20T04:50:34;7.00;99.90
6307;DHT22;3186;54.062;9.962;2022-12-20T04:53:00;7.00;99.90
6307;DHT22;3186;54.062;9.962;2022-12-20T04:55:45;7.00;99.90
6307;DHT22;3186;54.062;9.962;2022-12-20T04:58:11;7.00;99.90
6307;DHT22;3186;54.062;9.962;2022-12-20T05:00:39;7.00;99.90
6307;DHT22;3186;54.062;9.962;2022-12-20T05:03:19;7.00;99.90
6307;DHT22;3186;54.062;9.962;2022-12-20T05:05:45;7.10;99.90
6307;DHT22;3186;54.062;9.962;2022-12-20T05:08:11;7.10;99.90
6307;DHT22;3186;54.062;9.962;2022-12-20T05:10:37;7.10;99.90
6307;DHT22;3186;54.062;9.962;2022-12-20T05:13:03;7.10;99.90
6307;DHT22;3186;54.062;9.962;2022-12-20T05:15:35;7.10;99.90
6307;DHT22;3186;54.062;9.962;2022-12-20T05:18:02;7.10;99.90
6307;DHT22;3186;54.062;9.962;2022-12-20T05:20:38;7.10;99.90
6307;DHT22;3186;54.062;9.962;2022-12-20T05:23:04;7.10;99.90
6307;DHT22;3186;54.062;9.962;2022-12-20T05:25:52;7.10;99.90
6307;DHT22;3186;54.062;9.962;2022-12-20T05:28:38;7.10;99.90
6307;DHT22;3186;54.062;9.962;2022-12-20T05:31:05;7.10;99.90
6307;DHT22;3186;54.062;9.962;2022-12-20T05:33:34;7.00;99.90
6307;DHT22;3186;54.062;9.962;2022-12-20T05:36:01;7.10;99.90
6307;DHT22;3186;54.062;9.962;2022-12-20T05:38:28;7.20;99.90
6307;DHT22;3186;54.062;9.962;2022-12-20T05:40:54;7.20;99.90
6307;DHT22;3186;54.062;9.962;2022-12-20T05:43:20;7.20;99.90
6307;DHT22;3186;54.062;9.962;2022-12-20T05:45:48;7.10;99.90
6307;DHT22;3186;54.062;9.962;2022-12-20T05:48:19;7.20;99.90
6307;DHT22;3186;54.062;9.962;2022-12-20T05:50:46;7.30;99.90
6307;DHT22;3186;54.062;9.962;2022-12-20T05:53:32;7.30;99.90
6307;DHT22;3186;54.062;9.962;2022-12-20T05:56:01;7.30;99.90
6307;DHT22;3186;54.062;9.962;2022-12-20T05:58:35;7.30;99.90
6307;DHT22;3186;54.062;9.962;2022-12-20T06:01:05;7.20;99.90
6307;DHT22;3186;54.062;9.962;2022-12-20T06:03:37;7.10;99.90
6307;DHT22;3186;54.062;9.962;2022-12-20T06:06:06;7.30;99.90
6307;DHT22;3186;54.062;9.962;2022-12-20T06:08:33;7.30;99.90
6307;DHT22;3186;54.062;9.962;2022-12-20T06:11:01;7.40;99.90
6307;DHT22;3186;54.062;9.962;2022-12-20T06:13:32;7.30;99.90
6307;DHT22;3186;54.062;9.962;2022-12-20T06:15:58;7.40;99.90
6307;DHT22;3186;54.062;9.962;2022-12-20T06:18:25;7.10;99.90
6307;DHT22;3186;54.062;9.962;2022-12-20T06:20:55;7.30;99.90
6307;DHT22;3186;54.062;9.962;2022-12-20T06:23:22;7.30;99.90
6307;DHT22;3186;54.062;9.962;2022-12-20T06:26:10;7.30;99.90
6307;DHT22;3186;54.062;9.962;2022-12-20T06:28:45;7.40;99.90
6307;DHT22;3186;54.062;9.962;2022-12-20T06:31:12;7.30;99.90
6307;DHT22;3186;54.062;9.962;2022-12-20T06:33:43;7.30;99.90
6307;DHT22;3186;54.062;9.962;2022-12-20T06:36:10;7.30;99.90
6307;DHT22;3186;54.062;9.962;2022-12-20T06:38:36;7.40;99.90
6307;DHT22;3186;54.062;9.962;2022-12-20T06:41:02;7.30;99.90
6307;DHT22;3186;54.062;9.962;2022-12-20T06:43:28;7.30;99.90
6307;DHT22;3186;54.062;9.962;2022-12-20T06:45:54;7.40;99.90
6307;DHT22;3186;54.062;9.962;2022-12-20T06:48:20;7.40;99.90
6307;DHT22;3186;54.062;9.962;2022-12-20T06:50:48;7.30;99.90
6307;DHT22;3186;54.062;9.962;2022-12-20T06:53:15;7.40;99.90
6307;DHT22;3186;54.062;9.962;2022-12-20T06:55:41;7.40;99.90
6307;DHT22;3186;54.062;9.962;2022-12-20T06:58:07;7.40;99.90
6307;DHT22;3186;54.062;9.962;2022-12-20T07:00:36;7.50;99.90
6307;DHT22;3186;54.062;9.962;2022-12-20T07:03:01;7.50;99.90
6307;DHT22;3186;54.062;9.962;2022-12-20T07:05:27;7.50;99.90
6307;DHT22;3186;54.062;9.962;2022-12-20T07:07:53;7.40;99.90
6307;DHT22;3186;54.062;9.962;2022-12-20T07:10:19;7.30;99.90
6307;DHT22;3186;54.062;9.962;2022-12-20T07:12:45;7.40;99.90
6307;DHT22;3186;54.062;9.962;2022-12-20T07:15:10;7.40;99.90
6307;DHT22;3186;54.062;9.962;2022-12-20T07:17:36;7.60;99.90
6307;DHT22;3186;54.062;9.962;2022-12-20T07:20:02;7.60;99.90
6307;DHT22;3186;54.062;9.962;2022-12-20T07:22:28;7.50;99.90
6307;DHT22;3186;54.062;9.962;2022-12-20T07:24:54;7.50;99.90
6307;DHT22;3186;54.062;9.962;2022-12-20T07:27:20;7.50;99.90
6307;DHT22;3186;54.062;9.962;2022-12-20T07:29:46;7.60;99.90
6307;DHT22;3186;54.062;9.962;2022-12-20T07:32:12;7.60;99.90
6307;DHT22;3186;54.062;9.962;2022-12-20T07:34:38;7.60;99.90
6307;DHT22;3186;54.062;9.962;2022-12-20T07:37:05;7.60;99.90
6307;DHT22;3186;54.062;9.962;2022-12-20T07:39:30;7.60;99.90
6307;DHT22;3186;54.062;9.962;2022-12-20T07:41:56;7.60;99.90
6307;DHT22;3186;54.062;9.962;2022-12-20T07:44:22;7.50;99.90
6307;DHT22;3186;54.062;9.962;2022-12-20T07:46:48;7.60;99.90
6307;DHT22;3186;54.062;9.962;2022-12-20T07:49:14;7.70;99.90
6307;DHT22;3186;54.062;9.962;2022-12-20T07:51:50;7.80;99.90
6307;DHT22;3186;54.062;9.962;2022-12-20T07:54:20;7.70;99.90
6307;DHT22;3186;54.062;9.962;2022-12-20T07:56:52;7.70;99.90
6307;DHT22;3186;54.062;9.962;2022-12-20T07:59:23;7.80;99.90
6307;DHT22;3186;54.062;9.962;2022-12-20T10:02:09;8.20;99.90
6307;DHT22;3186;54.062;9.962;2022-12-20T10:04:36;8.30;99.90
6307;DHT22;3186;54.062;9.962;2022-12-20T10:10:18;8.50;99.90
6307;DHT22;3186;54.062;9.962;2022-12-20T10:13:12;8.50;99.90
6307;DHT22;3186;54.062;9.962;2022-12-20T10:16:23;8.50;99.90
6307;DHT22;3186;54.062;9.962;2022-12-20T10:19:11;8.60;99.90
6307;DHT22;3186;54.062;9.962;2022-12-20T10:25:14;8.60;99.90
6307;DHT22;3186;54.062;9.962;2022-12-20T10:27:41;8.60;99.90
6307;DHT22;3186;54.062;9.962;2022-12-20T10:30:14;8.60;99.90
6307;DHT22;3186;54.062;9.962;2022-12-20T10:32:46;8.50;99.90
6307;DHT22;3186;54.062;9.962;2022-12-20T10:35:26;8.50;99.90
6307;DHT22;3186;54.062;9.962;2022-12-20T10:40:29;8.60;99.90
6307;DHT22;3186;54.062;9.962;2022-12-20T10:42:55;8.60;99.90
6307;DHT22;3186;54.062;9.962;2022-12-20T10:47:50;8.70;99.90
6307;DHT22;3186;54.062;9.962;2022-12-20T10:50:21;8.70;99.90
6307;DHT22;3186;54.062;9.962;2022-12-20T10:58:35;8.80;99.90
6307;DHT22;3186;54.062;9.962;2022-12-20T11:01:14;8.80;99.90
6307;DHT22;3186;54.062;9.962;2022-12-20T11:06:50;8.90;99.90
6307;DHT22;3186;54.062;9.962;2022-12-20T11:12:34;8.90;99.90
6307;DHT22;3186;54.062;9.962;2022-12-20T11:15:18;8.70;99.90
6307;DHT22;3186;54.062;9.962;2022-12-20T11:17:46;9.00;99.90
6307;DHT22;3186;54.062;9.962;2022-12-20T11:20:37;8.90;99.90
6307;DHT22;3186;54.062;9.962;2022-12-20T11:31:36;9.30;99.90
6307;DHT22;3186;54.062;9.962;2022-12-20T11:35:02;9.30;99.90
6307;DHT22;3186;54.062;9.962;2022-12-20T11:37:27;9.30;99.90
6307;DHT22;3186;54.062;9.962;2022-12-20T11:40:15;9.30;99.90
6307;DHT22;3186;54.062;9.962;2022-12-20T11:45:37;9.30;99.90
6307;DHT22;3186;54.062;9.962;2022-12-20T11:53:44;9.20;99.90
6307;DHT22;3186;54.062;9.962;2022-12-20T11:56:25;9.20;99.90
6307;DHT22;3186;54.062;9.962;2022-12-20T11:59:03;9.20;99.90
6307;DHT22;3186;54.062;9.962;2022-12-20T12:01:37;9.20;99.90
6307;DHT22;3186;54.062;9.962;2022-12-20T12:06:44;9.20;99.90
6307;DHT22;3186;54.062;9.962;2022-12-20T12:09:14;9.20;99.90
6307;DHT22;3186;54.062;9.962;2022-12-20T12:11:53;9.20;99.90
6307;DHT22;3186;54.062;9.962;2022-12-20T12:16:56;9.20;99.90
6307;DHT22;3186;54.062;9.962;2022-12-20T12:19:28;9.30;99.90
6307;DHT22;3186;54.062;9.962;2022-12-20T12:22:08;9.30;99.90
6307;DHT22;3186;54.062;9.962;2022-12-20T12:24:47;9.30;99.90
6307;DHT22;3186;54.062;9.962;2022-12-20T12:27:22;9.20;99.90
6307;DHT22;3186;54.062;9.962;2022-12-20T12:29:50;9.20;99.90
6307;DHT22;3186;54.062;9.962;2022-12-20T12:32:39;9.30;99.90
6307;DHT22;3186;54.062;9.962;2022-12-20T12:44:37;9.20;99.90
6307;DHT22;3186;54.062;9.962;2022-12-20T12:47:20;9.20;99.90
6307;DHT22;3186;54.062;9.962;2022-12-20T12:49:49;9.30;99.90
6307;DHT22;3186;54.062;9.962;2022-12-20T12:52:28;9.20;99.90
6307;DHT22;3186;54.062;9.962;2022-12-20T12:55:00;9.30;99.90
6307;DHT22;3186;54.062;9.962;2022-12-20T12:57:25;9.30;99.90
6307;DHT22;3186;54.062;9.962;2022-12-20T12:59:52;9.40;99.90
6307;DHT22;3186;54.062;9.962;2022-12-20T13:02:21;9.30;99.90
6307;DHT22;3186;54.062;9.962;2022-12-20T13:17:57;9.40;99.90
6307;DHT22;3186;54.062;9.962;2022-12-20T13:20:30;9.40;99.90
6307;DHT22;3186;54.062;9.962;2022-12-20T13:25:40;9.40;99.90
6307;DHT22;3186;54.062;9.962;2022-12-20T13:33:47;9.40;99.90
6307;DHT22;3186;54.062;9.962;2022-12-20T13:43:59;9.40;99.90
6307;DHT22;3186;54.062;9.962;2022-12-20T13:49:04;9.40;99.90
6307;DHT22;3186;54.062;9.962;2022-12-20T13:51:33;9.40;99.90
6307;DHT22;3186;54.062;9.962;2022-12-20T13:54:05;9.40;99.90
6307;DHT22;3186;54.062;9.962;2022-12-20T13:56:45;9.30;99.90
6307;DHT22;3186;54.062;9.962;2022-12-20T13:59:32;9.40;99.90
6307;DHT22;3186;54.062;9.962;2022-12-20T14:02:08;9.40;99.90
6307;DHT22;3186;54.062;9.962;2022-12-20T14:04:39;9.40;99.90
6307;DHT22;3186;54.062;9.962;2022-12-20T14:07:08;9.40;99.90
6307;DHT22;3186;54.062;9.962;2022-12-20T14:09:38;9.30;99.90
6307;DHT22;3186;54.062;9.962;2022-12-20T14:12:13;9.20;99.90
6307;DHT22;3186;54.062;9.962;2022-12-20T14:14:47;9.30;99.90
6307;DHT22;3186;54.062;9.962;2022-12-20T14:19:42;9.30;99.90
6307;DHT22;3186;54.062;9.962;2022-12-20T14:22:10;9.30;99.90
6307;DHT22;3186;54.062;9.962;2022-12-20T14:24:39;9.30;99.90
6307;DHT22;3186;54.062;9.962;2022-12-20T14:27:10;9.20;99.90
6307;DHT22;3186;54.062;9.962;2022-12-20T14:29:38;9.30;99.90
6307;DHT22;3186;54.062;9.962;2022-12-20T14:32:05;9.30;99.90
6307;DHT22;3186;54.062;9.962;2022-12-20T14:34:32;9.20;99.90
6307;DHT22;3186;54.062;9.962;2022-12-20T14:37:37;9.20;99.90
6307;DHT22;3186;54.062;9.962;2022-12-20T14:42:38;9.20;99.90
6307;DHT22;3186;54.062;9.962;2022-12-20T14:47:36;9.20;99.90
6307;DHT22;3186;54.062;9.962;2022-12-20T14:50:05;9.30;99.90
6307;DHT22;3186;54.062;9.962;2022-12-20T14:55:00;9.30;99.90
6307;DHT22;3186;54.062;9.962;2022-12-20T14:57:30;9.20;99.90
6307;DHT22;3186;54.062;9.962;2022-12-20T15:00:13;9.20;99.90
6307;DHT22;3186;54.062;9.962;2022-12-20T15:08:17;9.20;99.90
6307;DHT22;3186;54.062;9.962;2022-12-20T15:11:10;9.20;99.90
6307;DHT22;3186;54.062;9.962;2022-12-20T15:13:45;9.20;99.90
6307;DHT22;3186;54.062;9.962;2022-12-20T15:16:19;9.10;99.90
6307;DHT22;3186;54.062;9.962;2022-12-20T15:18:46;9.10;99.90
6307;DHT22;3186;54.062;9.962;2022-12-20T15:21:16;9.20;99.90
6307;DHT22;3186;54.062;9.962;2022-12-20T15:23:51;9.10;99.90
6307;DHT22;3186;54.062;9.962;2022-12-20T15:26:20;9.10;99.90
6307;DHT22;3186;54.062;9.962;2022-12-20T15:28:47;9.10;99.90
6307;DHT22;3186;54.062;9.962;2022-12-20T15:31:15;9.10;99.90
6307;DHT22;3186;54.062;9.962;2022-12-20T15:33:42;9.10;99.90
6307;DHT22;3186;54.062;9.962;2022-12-20T15:38:40;9.10;99.90
6307;DHT22;3186;54.062;9.962;2022-12-20T15:43:44;9.10;99.90
6307;DHT22;3186;54.062;9.962;2022-12-20T15:46:10;9.10;99.90
6307;DHT22;3186;54.062;9.962;2022-12-20T15:48:36;9.20;99.90
6307;DHT22;3186;54.062;9.962;2022-12-20T15:51:05;9.10;99.90
6307;DHT22;3186;54.062;9.962;2022-12-20T15:53:36;9.10;99.90
6307;DHT22;3186;54.062;9.962;2022-12-20T15:56:02;9.00;99.90
6307;DHT22;3186;54.062;9.962;2022-12-20T15:58:28;9.00;99.90
6307;DHT22;3186;54.062;9.962;2022-12-20T16:00:59;9.00;99.90
6307;DHT22;3186;54.062;9.962;2022-12-20T16:03:29;9.00;99.90
6307;DHT22;3186;54.062;9.962;2022-12-20T16:05:56;9.00;99.90
6307;DHT22;3186;54.062;9.962;2022-12-20T16:08:22;9.00;99.90
6307;DHT22;3186;54.062;9.962;2022-12-20T16:10:50;9.10;99.90
6307;DHT22;3186;54.062;9.962;2022-12-20T16:13:22;9.10;99.90
6307;DHT22;3186;54.062;9.962;2022-12-20T16:15:48;9.00;99.90
6307;DHT22;3186;54.062;9.962;2022-12-20T16:18:15;9.00;99.90
6307;DHT22;3186;54.062;9.962;2022-12-20T16:20:41;9.00;99.90
6307;DHT22;3186;54.062;9.962;2022-12-20T16:23:18;9.00;99.90
6307;DHT22;3186;54.062;9.962;2022-12-20T16:25:44;9.10;99.90
6307;DHT22;3186;54.062;9.962;2022-12-20T16:28:11;9.10;99.90
6307;DHT22;3186;54.062;9.962;2022-12-20T16:30:36;9.10;99.90
6307;DHT22;3186;54.062;9.962;2022-12-20T16:33:02;9.10;99.90
6307;DHT22;3186;54.062;9.962;2022-12-20T16:35:30;9.00;99.90
6307;DHT22;3186;54.062;9.962;2022-12-20T16:37:58;9.10;99.90
6307;DHT22;3186;54.062;9.962;2022-12-20T16:40:27;9.00;99.90
6307;DHT22;3186;54.062;9.962;2022-12-20T16:42:55;9.00;99.90
6307;DHT22;3186;54.062;9.962;2022-12-20T16:45:28;9.10;99.90
6307;DHT22;3186;54.062;9.962;2022-12-20T16:47:54;9.00;99.90
6307;DHT22;3186;54.062;9.962;2022-12-20T16:50:22;9.10;99.90
6307;DHT22;3186;54.062;9.962;2022-12-20T16:52:49;9.10;99.90
6307;DHT22;3186;54.062;9.962;2022-12-20T16:55:21;9.10;99.90
6307;DHT22;3186;54.062;9.962;2022-12-20T16:57:48;9.10;99.90
6307;DHT22;3186;54.062;9.962;2022-12-20T17:00:23;9.00;99.90
6307;DHT22;3186;54.062;9.962;2022-12-20T17:02:50;9.10;99.90
6307;DHT22;3186;54.062;9.962;2022-12-20T17:05:30;9.10;99.90
6307;DHT22;3186;54.062;9.962;2022-12-20T17:07:56;9.10;99.90
6307;DHT22;3186;54.062;9.962;2022-12-20T17:10:24;9.10;99.90
6307;DHT22;3186;54.062;9.962;2022-12-20T17:12:50;9.10;99.90
6307;DHT22;3186;54.062;9.962;2022-12-20T17:15:19;9.10;99.90
6307;DHT22;3186;54.062;9.962;2022-12-20T17:17:46;9.20;99.90
6307;DHT22;3186;54.062;9.962;2022-12-20T17:20:13;9.10;99.90
6307;DHT22;3186;54.062;9.962;2022-12-20T17:22:39;9.10;99.90
6307;DHT22;3186;54.062;9.962;2022-12-20T17:25:08;9.00;99.90
6307;DHT22;3186;54.062;9.962;2022-12-20T17:27:40;9.10;99.90
6307;DHT22;3186;54.062;9.962;2022-12-20T17:30:07;9.10;99.90
6307;DHT22;3186;54.062;9.962;2022-12-20T17:32:33;9.10;99.90
6307;DHT22;3186;54.062;9.962;2022-12-20T17:34:59;9.10;99.90
6307;DHT22;3186;54.062;9.962;2022-12-20T17:37:25;9.00;99.90
6307;DHT22;3186;54.062;9.962;2022-12-20T17:39:52;9.10;99.90
6307;DHT22;3186;54.062;9.962;2022-12-20T17:42:18;9.00;99.90
6307;DHT22;3186;54.062;9.962;2022-12-20T17:44:44;9.10;99.90
6307;DHT22;3186;54.062;9.962;2022-12-20T17:47:10;9.10;99.90
6307;DHT22;3186;54.062;9.962;2022-12-20T17:49:36;9.10;99.90
6307;DHT22;3186;54.062;9.962;2022-12-20T17:52:02;9.10;99.90
6307;DHT22;3186;54.062;9.962;2022-12-20T17:54:28;9.10;99.90
6307;DHT22;3186;54.062;9.962;2022-12-20T17:56:54;9.10;99.90
6307;DHT22;3186;54.062;9.962;2022-12-20T17:59:21;9.10;99.90
6307;DHT22;3186;54.062;9.962;2022-12-20T18:01:47;9.00;99.90
6307;DHT22;3186;54.062;9.962;2022-12-20T18:04:15;9.10;99.90
6307;DHT22;3186;54.062;9.962;2022-12-20T18:06:42;9.20;99.90
6307;DHT22;3186;54.062;9.962;2022-12-20T18:09:20;9.10;99.90
6307;DHT22;3186;54.062;9.962;2022-12-20T18:11:46;9.20;99.90
6307;DHT22;3186;54.062;9.962;2022-12-20T18:14:13;9.10;99.90
6307;DHT22;3186;54.062;9.962;2022-12-20T18:16:39;9.20;99.90
6307;DHT22;3186;54.062;9.962;2022-12-20T18:19:06;9.20;99.90
6307;DHT22;3186;54.062;9.962;2022-12-20T18:21:32;9.30;99.90
6307;DHT22;3186;54.062;9.962;2022-12-20T18:23:58;9.20;99.90
6307;DHT22;3186;54.062;9.962;2022-12-20T18:26:31;9.20;99.90
6307;DHT22;3186;54.062;9.962;2022-12-20T18:28:59;9.20;99.90
6307;DHT22;3186;54.062;9.962;2022-12-20T18:31:27;9.20;99.90
6307;DHT22;3186;54.062;9.962;2022-12-20T18:33:53;9.20;99.90
6307;DHT22;3186;54.062;9.962;2022-12-20T18:36:23;9.20;99.90
6307;DHT22;3186;54.062;9.962;2022-12-20T18:38:50;9.20;99.90
6307;DHT22;3186;54.062;9.962;2022-12-20T18:41:19;9.20;99.90
6307;DHT22;3186;54.062;9.962;2022-12-20T18:43:44;9.20;99.90
6307;DHT22;3186;54.062;9.962;2022-12-20T18:46:13;9.20;99.90
6307;DHT22;3186;54.062;9.962;2022-12-20T18:48:40;9.30;99.90
6307;DHT22;3186;54.062;9.962;2022-12-20T18:51:11;9.30;99.90
6307;DHT22;3186;54.062;9.962;2022-12-20T18:53:39;9.30;99.90
6307;DHT22;3186;54.062;9.962;2022-12-20T18:56:07;9.80;99.90
6307;DHT22;3186;54.062;9.962;2022-12-20T18:58:34;9.20;99.90
6307;DHT22;3186;54.062;9.962;2022-12-20T19:01:05;9.30;99.90
6307;DHT22;3186;54.062;9.962;2022-12-20T19:03:32;9.30;99.90
6307;DHT22;3186;54.062;9.962;2022-12-20T19:05:58;9.30;99.90
6307;DHT22;3186;54.062;9.962;2022-12-20T19:08:26;9.40;99.90
6307;DHT22;3186;54.062;9.962;2022-12-20T19:10:56;9.40;99.90
6307;DHT22;3186;54.062;9.962;2022-12-20T19:13:22;9.30;99.90
6307;DHT22;3186;54.062;9.962;2022-12-20T19:15:48;9.30;99.90
6307;DHT22;3186;54.062;9.962;2022-12-20T19:18:14;9.20;99.90
6307;DHT22;3186;54.062;9.962;2022-12-20T19:20:41;9.30;99.90
6307;DHT22;3186;54.062;9.962;2022-12-20T19:23:07;9.30;99.90
6307;DHT22;3186;54.062;9.962;2022-12-20T19:25:34;9.30;99.90
6307;DHT22;3186;54.062;9.962;2022-12-20T19:28:01;9.30;99.90
6307;DHT22;3186;54.062;9.962;2022-12-20T19:30:28;9.30;99.90
6307;DHT22;3186;54.062;9.962;2022-12-20T19:32:55;9.30;99.90
6307;DHT22;3186;54.062;9.962;2022-12-20T19:35:21;9.30;99.90
6307;DHT22;3186;54.062;9.962;2022-12-20T19:37:47;9.30;99.90
6307;DHT22;3186;54.062;9.962;2022-12-20T19:40:13;9.30;99.90
6307;DHT22;3186;54.062;9.962;2022-12-20T19:42:43;9.20;99.90
6307;DHT22;3186;54.062;9.962;2022-12-20T19:45:09;9.30;99.90
6307;DHT22;3186;54.062;9.962;2022-12-20T19:47:36;9.20;99.90
6307;DHT22;3186;54.062;9.962;2022-12-20T19:50:02;9.30;99.90
6307;DHT22;3186;54.062;9.962;2022-12-20T19:52:30;9.30;99.90
6307;DHT22;3186;54.062;9.962;2022-12-20T19:54:57;9.30;99.90
6307;DHT22;3186;54.062;9.962;2022-12-20T19:57:23;9.40;99.90
6307;DHT22;3186;54.062;9.962;2022-12-20T19:59:48;9.30;99.90
6307;DHT22;3186;54.062;9.962;2022-12-20T20:02:14;9.30;99.90
6307;DHT22;3186;54.062;9.962;2022-12-20T20:04:41;9.30;99.90
6307;DHT22;3186;54.062;9.962;2022-12-20T20:07:09;9.30;99.90
6307;DHT22;3186;54.062;9.962;2022-12-20T20:09:35;9.40;99.90
6307;DHT22;3186;54.062;9.962;2022-12-20T20:12:01;9.30;99.90
6307;DHT22;3186;54.062;9.962;2022-12-20T20:14:27;9.30;99.90
6307;DHT22;3186;54.062;9.962;2022-12-20T20:16:53;9.30;99.90
6307;DHT22;3186;54.062;9.962;2022-12-20T20:19:18;9.40;99.90
6307;DHT22;3186;54.062;9.962;2022-12-20T20:21:45;9.40;99.90
6307;DHT22;3186;54.062;9.962;2022-12-20T20:24:13;9.40;99.90
6307;DHT22;3186;54.062;9.962;2022-12-20T20:26:40;9.40;99.90
6307;DHT22;3186;54.062;9.962;2022-12-20T20:29:06;9.40;99.90
6307;DHT22;3186;54.062;9.962;2022-12-20T20:31:35;9.40;99.90
6307;DHT22;3186;54.062;9.962;2022-12-20T20:34:01;9.40;99.90